Latest Weather Observations for Rosslyn Bay Harbour

IDQ60801

Issued at 11:05 pm EST Wednesday 17 September 2014 (issued every 30 minutes, with the page automatically refreshed every 10 minutes)

About weather observations | Map of weather stations | Latest weather observations for QLD | Other Formats
Station Details ID: 033208 Name: ROSSLYN BAY NTC AWS Lat: -23.16 Lon: 150.79 Height: 0.0 m
Data from the previous 72 hours. | See also: Recent months for locations in Queensland
Date/Time
EST
Temp
°C
App
Temp
°C
Dew
Point
Rel
Hum
%
Delta-T
°C
Wind Press
QNH
hPa
Press
MSL
hPa
Rain
since 9 am
mm
Dir
 
Spd
km/h
Gust
km/h
Spd
kts
Gust
kts
17/11:00pm 20.3 - - - - WNW 6 13 3 7 1015.6 1015.6 -
17/10:30pm 20.2 - - - - WSW 2 4 1 2 1015.4 1015.4 -
17/10:00pm 20.8 - - - - N 6 9 3 5 1015.5 1015.5 -
17/09:30pm 20.9 - - - - NNW 9 11 5 6 1015.3 1015.3 -
17/09:00pm 21.6 - - - - N 13 20 7 11 1015.3 1015.3 -
17/08:30pm 22.2 - - - - N 19 24 10 13 1015.0 1015.0 -
17/08:00pm 22.1 - - - - NNE 17 24 9 13 1014.8 1014.8 -
17/07:30pm 22.2 - - - - NNE 20 28 11 15 1014.2 1014.2 -
17/07:00pm 22.2 - - - - NNE 22 32 12 17 1013.9 1013.9 -
17/06:30pm 22.4 - - - - NNE 24 33 13 18 1013.6 1013.6 -
17/06:00pm 22.3 - - - - NNE 24 33 13 18 1013.1 1013.1 -
17/05:30pm 22.2 - - - - NNE 26 35 14 19 1012.9 1012.9 -
17/05:00pm 22.2 - - - - NNE 22 35 12 19 1012.9 1012.9 -
17/04:30pm 22.1 - - - - NNE 24 35 13 19 1012.7 1012.7 -
17/04:00pm 22.1 - - - - NNE 20 30 11 16 1012.8 1012.8 -
17/03:30pm 22.0 - - - - NNE 19 26 10 14 1012.8 1012.8 -
17/03:00pm 22.0 - - - - NNE 19 26 10 14 1013.1 1013.1 -
17/02:30pm 22.0 - - - - NNE 17 24 9 13 1013.3 1013.3 -
17/02:00pm 22.1 - - - - NNE 15 24 8 13 1013.6 1013.6 -
17/01:30pm 22.1 - - - - NNE 15 20 8 11 1014.1 1014.1 -
17/01:00pm 22.3 - - - - NNE 15 24 8 13 1014.5 1014.5 -
17/12:30pm 22.0 - - - - NE 17 20 9 11 1014.9 1014.9 -
17/12:00pm 22.2 - - - - NE 13 20 7 11 1015.4 1015.4 -
17/11:30am 21.2 - - - - NE 17 20 9 11 1015.6 1015.6 -
17/11:00am 21.2 - - - - NE 13 17 7 9 1016.2 1016.2 -
17/10:30am 21.6 - - - - ENE 9 11 5 6 1016.8 1016.8 -
17/10:00am 22.1 - - - - N 9 13 5 7 1017.1 1017.1 -
17/09:30am 21.4 - - - - NW 13 20 7 11 1017.6 1017.6 -
17/09:00am 21.1 - - - - N 4 9 2 5 1017.8 1017.8 -
17/08:30am 20.4 - - - - WNW 6 9 3 5 1017.9 1017.9 -
17/08:00am 19.6 - - - - S 6 9 3 5 1017.6 1017.6 -
17/07:30am 19.0 - - - - S 4 7 2 4 1017.4 1017.4 -
17/07:00am 16.4 - - - - S 7 11 4 6 1016.9 1016.9 -
17/06:30am 17.6 - - - - SSW 2 4 1 2 1015.9 1015.9 -
17/06:00am 17.7 - - - - SW 2 4 1 2 1015.5 1015.5 -
17/05:30am 17.7 - - - - SW 2 6 1 3 1015.3 1015.3 -
17/05:00am 17.7 - - - - W 2 4 1 2 1015.1 1015.1 -
17/04:30am 17.9 - - - - SSW 2 4 1 2 1014.8 1014.8 -
17/04:00am 18.3 - - - - SW 2 4 1 2 1014.6 1014.6 -
17/03:30am 18.7 - - - - NW 6 9 3 5 1014.5 1014.5 -
17/03:00am 19.1 - - - - N 6 9 3 5 1014.5 1014.5 -
17/02:30am 19.2 - - - - N 11 15 6 8 1014.6 1014.6 -
17/02:00am 18.7 - - - - NNW 13 19 7 10 1015.1 1015.1 -
17/01:30am 19.3 - - - - N 13 19 7 10 1015.1 1015.1 -
17/01:00am 19.4 - - - - N 13 19 7 10 1015.2 1015.2 -
17/12:30am 19.8 - - - - N 13 19 7 10 1015.4 1015.4 -
17/12:00am 19.8 - - - - N 13 17 7 9 1015.8 1015.8 -
 
Date/Time
EST
Temp
°C
App
Temp
°C
Dew
Point
Rel
Hum
%
Delta-T
°C
Wind Press
QNH
hPa
Press
MSL
hPa
Rain
since 9 am
mm
Dir
 
Spd
km/h
Gust
km/h
Spd
kts
Gust
kts
16/11:30pm 19.6 - - - - N 9 13 5 7 1016.2 1016.2 -
16/11:00pm 19.7 - - - - N 11 15 6 8 1016.5 1016.5 -
16/10:30pm 20.1 - - - - N 11 15 6 8 1016.5 1016.5 -
16/10:00pm 20.0 - - - - NNW 11 13 6 7 1016.4 1016.4 -
16/09:30pm 20.2 - - - - NNW 13 17 7 9 1016.3 1016.3 -
16/09:00pm 20.1 - - - - NNW 13 17 7 9 1016.2 1016.2 -
16/08:30pm 21.1 - - - - N 19 26 10 14 1016.0 1016.0 -
16/08:00pm 21.0 - - - - N 15 19 8 10 1015.6 1015.6 -
16/07:30pm 21.5 - - - - NNE 20 30 11 16 1015.1 1015.1 -
16/07:00pm 21.6 - - - - NNE 20 28 11 15 1014.6 1014.6 -
16/06:30pm 21.5 - - - - NNE 19 26 10 14 1014.3 1014.3 -
16/06:00pm 21.5 - - - - NNE 19 24 10 13 1014.2 1014.2 -
16/05:30pm 21.5 - - - - NNE 19 24 10 13 1014.0 1014.0 -
16/05:00pm 21.6 - - - - NNE 17 24 9 13 1013.9 1013.9 -
16/04:30pm 21.6 - - - - NNE 17 22 9 12 1013.9 1013.9 -
16/04:00pm 21.7 - - - - NNE 15 20 8 11 1013.9 1013.9 -
16/03:30pm 21.8 - - - - NNE 13 20 7 11 1014.0 1014.0 -
16/03:00pm 21.6 - - - - NNE 13 20 7 11 1014.0 1014.0 -
16/02:30pm 21.6 - - - - NNE 13 20 7 11 1014.2 1014.2 -
16/02:00pm 21.8 - - - - NNE 11 19 6 10 1014.5 1014.5 -
16/01:30pm 21.8 - - - - NE 13 19 7 10 1014.8 1014.8 -
16/01:00pm 21.4 - - - - NE 11 17 6 9 1015.3 1015.3 -
16/12:30pm 21.3 - - - - NE 13 15 7 8 1015.9 1015.9 -
16/12:00pm 20.8 - - - - ENE 15 17 8 9 1016.5 1016.5 -
16/11:30am 21.3 - - - - NE 15 19 8 10 1017.0 1017.0 -
16/11:00am 20.9 - - - - NE 15 17 8 9 1017.5 1017.5 -
16/10:30am 20.5 - - - - ENE 11 13 6 7 1018.0 1018.0 -
16/10:00am 20.4 - - - - ENE 9 13 5 7 1018.4 1018.4 -
16/09:30am 21.0 - - - - NNE 6 11 3 6 1018.6 1018.6 -
16/09:00am 21.3 - - - - N 4 7 2 4 1018.8 1018.8 -
16/08:30am 20.4 - - - - WNW 4 7 2 4 1018.8 1018.8 -
16/08:00am 19.6 - - - - W 4 7 2 4 1018.6 1018.6 -
16/07:30am 18.3 - - - - WSW 4 6 2 3 1018.4 1018.4 -
16/07:00am 16.8 - - - - WSW 2 4 1 2 1018.1 1018.1 -
16/06:30am 16.6 - - - - W 4 6 2 3 1017.8 1017.8 -
16/06:00am 16.6 - - - - W 4 6 2 3 1017.5 1017.5 -
16/05:30am 16.2 - - - - WSW 6 7 3 4 1017.3 1017.3 -
16/05:00am 16.3 - - - - WSW 4 7 2 4 1017.0 1017.0 -
16/04:30am 17.1 - - - - W 4 6 2 3 1016.5 1016.5 -
16/04:00am 18.3 - - - - S 2 4 1 2 1016.2 1016.2 -
16/03:30am 17.3 - - - - SW 2 4 1 2 1016.0 1016.0 -
16/03:00am 18.6 - - - - S 2 4 1 2 1016.0 1016.0 -
16/02:30am 18.3 - - - - SSW 2 4 1 2 1016.0 1016.0 -
16/02:00am 18.1 - - - - SW 2 2 1 1 1016.1 1016.1 -
16/01:30am 18.5 - - - - SW 2 4 1 2 1016.3 1016.3 -
16/01:00am 19.1 - - - - WSW 2 4 1 2 1016.5 1016.5 -
16/12:30am 19.5 - - - - NNW 4 11 2 6 1016.6 1016.6 -
16/12:00am 20.7 - - - - NE 9 11 5 6 1016.9 1016.9 -
 
Date/Time
EST
Temp
°C
App
Temp
°C
Dew
Point
Rel
Hum
%
Delta-T
°C
Wind Press
QNH
hPa
Press
MSL
hPa
Rain
since 9 am
mm
Dir
 
Spd
km/h
Gust
km/h
Spd
kts
Gust
kts
15/11:30pm 20.8 - - - - ENE 9 17 5 9 1017.0 1017.0 -
15/11:00pm 20.7 - - - - ENE 9 20 5 11 1016.9 1016.9 -
15/10:30pm 20.8 - - - - ENE 15 22 8 12 1017.0 1017.0 -
15/10:00pm 20.7 - - - - NE 15 17 8 9 1017.1 1017.1 -
15/09:30pm 20.8 - - - - NE 15 19 8 10 1017.3 1017.3 -
15/09:00pm 20.9 - - - - ENE 11 19 6 10 1017.2 1017.2 -
15/08:30pm 20.6 - - - - E 7 17 4 9 1017.1 1017.1 -
15/08:00pm 20.6 - - - - ENE 6 15 3 8 1017.0 1017.0 -
15/07:30pm 20.4 - - - - E 4 13 2 7 1016.8 1016.8 -
15/07:00pm 20.6 - - - - ENE 9 19 5 10 1016.5 1016.5 -
15/06:30pm 20.6 - - - - ENE 6 17 3 9 1016.3 1016.3 -
15/06:00pm 20.7 - - - - ENE 7 17 4 9 1015.9 1015.9 -
15/05:30pm 21.1 - - - - ENE 9 17 5 9 1015.8 1015.8 -
15/05:00pm 21.3 - - - - ENE 9 17 5 9 1015.6 1015.6 -
15/04:30pm 21.4 - - - - ENE 9 19 5 10 1015.4 1015.4 -
15/04:00pm 20.9 - - - - ENE 13 17 7 9 1015.3 1015.3 -
15/03:30pm 20.9 - - - - ENE 13 19 7 10 1015.3 1015.3 -
15/03:00pm 20.8 - - - - ENE 15 19 8 10 1015.4 1015.4 -
15/02:30pm 21.1 - - - - ENE 15 20 8 11 1015.6 1015.6 -
15/02:00pm 21.4 - - - - NE 9 19 5 10 1015.8 1015.8 -
15/01:30pm 22.1 - - - - NE 4 13 2 7 1016.2 1016.2 -
15/01:00pm 21.6 - - - - ENE 4 11 2 6 1016.6 1016.6 -
15/12:30pm 21.6 - - - - SSW 4 11 2 6 1017.1 1017.1 -
15/12:00pm 20.9 - - - - S 9 15 5 8 1017.6 1017.6 -
15/11:30am 20.5 - - - - S 11 20 6 11 1018.0 1018.0 -
15/11:00am 20.4 - - - - S 11 19 6 10 1018.5 1018.5 -
15/10:30am 20.2 - - - - S 15 19 8 10 1018.9 1018.9 -
15/10:00am 19.8 - - - - S 13 22 7 12 1019.0 1019.0 -
15/09:30am 19.6 - - - - S 13 20 7 11 1019.4 1019.4 -
15/09:00am 19.5 - - - - S 9 17 5 9 1019.6 1019.6 -
15/08:30am 19.2 - - - - S 9 17 5 9 1019.5 1019.5 -
15/08:00am 18.7 - - - - S 9 15 5 8 1019.3 1019.3 -
15/07:30am 17.7 - - - - SSW 7 13 4 7 1019.0 1019.0 -
15/07:00am 16.9 - - - - S 6 11 3 6 1018.8 1018.8 -
15/06:30am 16.2 - - - - S 7 11 4 6 1018.6 1018.6 -
15/06:00am 16.0 - - - - S 7 11 4 6 1018.5 1018.5 -
15/05:30am 16.2 - - - - S 7 11 4 6 1018.3 1018.3 -
15/05:00am 16.2 - - - - S 7 13 4 7 1018.1 1018.1 -
15/04:30am 16.4 - - - - S 6 9 3 5 1017.8 1017.8 -
15/04:00am 16.5 - - - - S 6 9 3 5 1017.6 1017.6 -
15/03:30am 16.6 - - - - S 6 9 3 5 1017.6 1017.6 -
15/03:00am 17.1 - - - - S 6 9 3 5 1017.6 1017.6 -
15/02:30am 19.8 - - - - S 9 17 5 9 1017.6 1017.6 -
15/02:00am 20.4 - - - - S 9 19 5 10 1018.0 1018.0 -
15/01:30am 20.5 - - - - S 9 17 5 9 1018.3 1018.3 -
15/01:00am 20.5 - - - - S 11 17 6 9 1018.5 1018.5 -
15/12:30am 20.5 - - - - S 11 19 6 10 1018.6 1018.6 -
15/12:00am 20.5 - - - - S 13 19 7 10 1018.8 1018.8 -
 
Date/Time
EST
Temp
°C
App
Temp
°C
Dew
Point
Rel
Hum
%
Delta-T
°C
Wind Press
QNH
hPa
Press
MSL
hPa
Rain
since 9 am
mm
Dir
 
Spd
km/h
Gust
km/h
Spd
kts
Gust
kts
14/11:30pm 20.6 - - - - S 11 19 6 10 1019.1 1019.1 -

Other Formats:

Comma delimited format used in spreadsheet applications
http://www.bom.gov.au/fwo/IDQ60801/IDQ60801.95298.axf

JavaScript Object Notation format (JSON) in row-major order
http://www.bom.gov.au/fwo/IDQ60801/IDQ60801.95298.json